sensor_id;sensor_type;location;lat;lon;timestamp;pressure;altitude;pressure_sealevel;temperature;humidity
31585;BME280;18191;51.288;12.390;2022-08-01T00:04:10;48959.09;;;-144.47;67.02
31585;BME280;18191;51.288;12.390;2022-08-01T00:09:00;48933.25;;;-144.47;66.79
31585;BME280;18191;51.288;12.390;2022-08-01T00:13:50;48947.16;;;-144.47;66.91
31585;BME280;18191;51.288;12.390;2022-08-01T00:18:41;48969.06;;;-144.47;67.35
31585;BME280;18191;51.288;12.390;2022-08-01T00:23:31;48921.31;;;-144.47;68.27
31585;BME280;18191;51.288;12.390;2022-08-01T00:28:21;48929.28;;;-144.47;67.51
31585;BME280;18191;51.288;12.390;2022-08-01T00:33:11;48935.25;;;-144.47;66.09
31585;BME280;18191;51.288;12.390;2022-08-01T00:38:01;48953.13;;;-144.47;65.81
31585;BME280;18191;51.288;12.390;2022-08-01T00:42:51;48949.16;;;-144.47;65.91
31585;BME280;18191;51.288;12.390;2022-08-01T00:47:42;48933.25;;;-144.47;69.00
31585;BME280;18191;51.288;12.390;2022-08-01T00:52:32;48975.03;;;-144.47;70.06
31585;BME280;18191;51.288;12.390;2022-08-01T00:57:23;48959.09;;;-144.47;69.47
31585;BME280;18191;51.288;12.390;2022-08-01T01:02:13;48927.28;;;-144.47;70.37
31585;BME280;18191;51.288;12.390;2022-08-01T01:07:09;48925.28;;;-144.47;70.97
31585;BME280;18191;51.288;12.390;2022-08-01T01:12:18;48953.13;;;-144.47;72.02
31585;BME280;18191;51.288;12.390;2022-08-01T01:17:13;48941.19;;;-144.47;73.42
31585;BME280;18191;51.288;12.390;2022-08-01T01:27:42;48957.13;;;-144.47;71.83
31585;BME280;18191;51.288;12.390;2022-08-01T01:32:36;48984.97;;;-144.47;71.97
31585;BME280;18191;51.288;12.390;2022-08-01T01:37:28;48965.06;;;-144.47;72.16
31585;BME280;18191;51.288;12.390;2022-08-01T01:42:19;48990.94;;;-144.47;69.50
31585;BME280;18191;51.288;12.390;2022-08-01T01:47:11;48969.06;;;-144.47;68.55
31585;BME280;18191;51.288;12.390;2022-08-01T01:52:02;48982.97;;;-144.47;67.55
31585;BME280;18191;51.288;12.390;2022-08-01T01:56:53;48945.19;;;-144.47;66.36
31585;BME280;18191;51.288;12.390;2022-08-01T02:01:45;48949.16;;;-144.47;65.53
31585;BME280;18191;51.288;12.390;2022-08-01T02:06:36;48981.00;;;-144.47;65.10
31585;BME280;18191;51.288;12.390;2022-08-01T02:11:29;48945.19;;;-144.47;65.00
31585;BME280;18191;51.288;12.390;2022-08-01T02:16:20;48937.22;;;-144.47;65.73
31585;BME280;18191;51.288;12.390;2022-08-01T02:21:13;48959.09;;;-144.47;65.45
31585;BME280;18191;51.288;12.390;2022-08-01T02:26:09;48957.13;;;-144.47;65.98
31585;BME280;18191;51.288;12.390;2022-08-01T02:31:01;48945.19;;;-144.47;65.70
31585;BME280;18191;51.288;12.390;2022-08-01T02:35:54;48941.19;;;-144.47;65.60
31585;BME280;18191;51.288;12.390;2022-08-01T02:40:47;48965.06;;;-144.47;66.28
31585;BME280;18191;51.288;12.390;2022-08-01T02:45:42;48941.19;;;-144.47;66.68
31585;BME280;18191;51.288;12.390;2022-08-01T02:50:33;48990.94;;;-144.47;66.71
31585;BME280;18191;51.288;12.390;2022-08-01T02:55:24;48933.25;;;-144.47;67.12
31585;BME280;18191;51.288;12.390;2022-08-01T03:00:15;48977.00;;;-144.47;67.66
31585;BME280;18191;51.288;12.390;2022-08-01T03:05:06;48937.22;;;-144.47;68.09
31585;BME280;18191;51.288;12.390;2022-08-01T03:09:58;48959.09;;;-144.47;68.40
31585;BME280;18191;51.288;12.390;2022-08-01T03:14:49;48949.16;;;-144.47;68.06
31585;BME280;18191;51.288;12.390;2022-08-01T03:19:41;48945.19;;;-144.47;68.66
31585;BME280;18191;51.288;12.390;2022-08-01T03:24:35;48953.13;;;-144.47;67.53
31585;BME280;18191;51.288;12.390;2022-08-01T03:29:27;48996.91;;;-144.47;68.34
31585;BME280;18191;51.288;12.390;2022-08-01T03:34:17;48969.06;;;-144.47;69.34
31585;BME280;18191;51.288;12.390;2022-08-01T03:39:10;48963.09;;;-144.47;68.56
31585;BME280;18191;51.288;12.390;2022-08-01T03:44:02;48998.91;;;-144.47;68.96
31585;BME280;18191;51.288;12.390;2022-08-01T03:48:54;48937.22;;;-144.47;70.18
31585;BME280;18191;51.288;12.390;2022-08-01T03:53:45;48979.00;;;-144.47;70.59
31585;BME280;18191;51.288;12.390;2022-08-01T03:58:38;49016.78;;;-144.47;70.62
31585;BME280;18191;51.288;12.390;2022-08-01T04:03:29;48957.13;;;-144.47;72.13
31585;BME280;18191;51.288;12.390;2022-08-01T04:08:19;48965.06;;;-144.47;72.77
31585;BME280;18191;51.288;12.390;2022-08-01T04:13:10;48992.94;;;-144.47;72.41
31585;BME280;18191;51.288;12.390;2022-08-01T04:18:00;48988.94;;;-144.47;72.78
31585;BME280;18191;51.288;12.390;2022-08-01T04:22:50;48959.09;;;-144.47;76.16
31585;BME280;18191;51.288;12.390;2022-08-01T04:27:42;49004.84;;;-144.47;76.42
31585;BME280;18191;51.288;12.390;2022-08-01T04:32:35;48977.00;;;-144.47;77.03
31585;BME280;18191;51.288;12.390;2022-08-01T04:37:27;48961.09;;;-144.47;76.67
31585;BME280;18191;51.288;12.390;2022-08-01T04:42:18;48977.00;;;-144.47;78.21
31585;BME280;18191;51.288;12.390;2022-08-01T04:47:08;48957.13;;;-144.47;77.01
31585;BME280;18191;51.288;12.390;2022-08-01T04:51:59;48979.00;;;-144.47;77.57
31585;BME280;18191;51.288;12.390;2022-08-01T04:56:50;48957.13;;;-144.47;76.45
31585;BME280;18191;51.288;12.390;2022-08-01T05:01:40;48973.03;;;-144.47;75.18
31585;BME280;18191;51.288;12.390;2022-08-01T05:06:30;48981.00;;;-144.47;75.33
31585;BME280;18191;51.288;12.390;2022-08-01T05:11:21;48996.91;;;-144.47;76.34
31585;BME280;18191;51.288;12.390;2022-08-01T05:16:12;48990.94;;;-144.47;77.83
31585;BME280;18191;51.288;12.390;2022-08-01T05:21:02;48977.00;;;-144.47;76.93
31585;BME280;18191;51.288;12.390;2022-08-01T05:25:52;48992.94;;;-144.47;74.89
31585;BME280;18191;51.288;12.390;2022-08-01T05:30:42;48957.13;;;-144.47;74.91
31585;BME280;18191;51.288;12.390;2022-08-01T05:35:32;48988.94;;;-144.47;74.91
31585;BME280;18191;51.288;12.390;2022-08-01T05:40:22;48941.19;;;-144.47;74.00
31585;BME280;18191;51.288;12.390;2022-08-01T05:45:13;48981.00;;;-144.47;70.95
31585;BME280;18191;51.288;12.390;2022-08-01T05:50:03;48937.22;;;-144.47;68.63
31585;BME280;18191;51.288;12.390;2022-08-01T05:54:53;48984.97;;;-144.47;67.79
31585;BME280;18191;51.288;12.390;2022-08-01T05:59:43;48941.19;;;-144.47;66.08
31585;BME280;18191;51.288;12.390;2022-08-01T06:04:33;48975.03;;;-144.47;65.29
31585;BME280;18191;51.288;12.390;2022-08-01T06:09:24;48931.25;;;-144.47;64.91
31585;BME280;18191;51.288;12.390;2022-08-01T06:14:14;48949.16;;;-144.47;66.98
31585;BME280;18191;51.288;12.390;2022-08-01T06:19:04;48945.19;;;-144.47;68.87
31585;BME280;18191;51.288;12.390;2022-08-01T06:23:54;48961.09;;;-144.47;68.49
31585;BME280;18191;51.288;12.390;2022-08-01T06:28:44;48963.09;;;-144.47;69.35
31585;BME280;18191;51.288;12.390;2022-08-01T06:33:34;48967.06;;;-144.47;68.99
31585;BME280;18191;51.288;12.390;2022-08-01T06:38:25;48988.94;;;-144.47;69.28
31585;BME280;18191;51.288;12.390;2022-08-01T06:43:15;48979.00;;;-144.47;69.38
31585;BME280;18191;51.288;12.390;2022-08-01T06:48:05;48929.28;;;-144.47;68.48
31585;BME280;18191;51.288;12.390;2022-08-01T06:52:55;48949.16;;;-144.47;67.95
31585;BME280;18191;51.288;12.390;2022-08-01T06:57:46;48945.19;;;-144.47;64.43
31585;BME280;18191;51.288;12.390;2022-08-01T07:02:36;48965.06;;;-144.47;64.27
31585;BME280;18191;51.288;12.390;2022-08-01T07:07:27;48957.13;;;-144.47;64.06
31585;BME280;18191;51.288;12.390;2022-08-01T07:12:17;48961.09;;;-144.47;65.88
31585;BME280;18191;51.288;12.390;2022-08-01T07:17:07;48973.03;;;-144.47;66.40
31585;BME280;18191;51.288;12.390;2022-08-01T07:21:57;48975.03;;;-144.47;66.01
31585;BME280;18191;51.288;12.390;2022-08-01T07:26:48;48986.97;;;-144.47;65.09
31585;BME280;18191;51.288;12.390;2022-08-01T07:31:39;48929.28;;;-144.47;61.84
31585;BME280;18191;51.288;12.390;2022-08-01T07:36:29;48961.09;;;-144.47;59.16
31585;BME280;18191;51.288;12.390;2022-08-01T07:41:20;48951.16;;;-144.47;57.35
31585;BME280;18191;51.288;12.390;2022-08-01T07:46:10;48935.25;;;-144.47;55.78
31585;BME280;18191;51.288;12.390;2022-08-01T07:51:00;48945.19;;;-144.47;55.19
31585;BME280;18191;51.288;12.390;2022-08-01T07:55:50;48951.16;;;-144.47;55.86
31585;BME280;18191;51.288;12.390;2022-08-01T08:00:41;48949.16;;;-144.47;58.64
31585;BME280;18191;51.288;12.390;2022-08-01T08:05:31;48957.13;;;-144.47;65.77
31585;BME280;18191;51.288;12.390;2022-08-01T08:10:22;48953.13;;;-144.47;72.66
31585;BME280;18191;51.288;12.390;2022-08-01T08:15:13;48992.94;;;-144.47;76.37
31585;BME280;18191;51.288;12.390;2022-08-01T08:20:04;49000.88;;;-144.47;72.86
31585;BME280;18191;51.288;12.390;2022-08-01T08:24:54;48973.03;;;-144.47;71.41
31585;BME280;18191;51.288;12.390;2022-08-01T08:29:44;48996.91;;;-144.47;69.56
31585;BME280;18191;51.288;12.390;2022-08-01T08:34:35;48965.06;;;-144.47;66.07
31585;BME280;18191;51.288;12.390;2022-08-01T08:39:25;48965.06;;;-144.47;62.83
31585;BME280;18191;51.288;12.390;2022-08-01T08:44:16;48947.16;;;-144.47;63.08
31585;BME280;18191;51.288;12.390;2022-08-01T08:49:07;48996.91;;;-144.47;63.79
31585;BME280;18191;51.288;12.390;2022-08-01T08:53:57;48941.19;;;-144.47;62.20
31585;BME280;18191;51.288;12.390;2022-08-01T08:58:47;48988.94;;;-144.47;58.94
31585;BME280;18191;51.288;12.390;2022-08-01T09:03:38;48969.06;;;-144.47;59.24
31585;BME280;18191;51.288;12.390;2022-08-01T09:08:29;48975.03;;;-144.47;56.20
31585;BME280;18191;51.288;12.390;2022-08-01T09:13:19;48937.22;;;-144.47;56.58
31585;BME280;18191;51.288;12.390;2022-08-01T09:23:33;48921.31;;;-144.47;53.16
31585;BME280;18191;51.288;12.390;2022-08-01T09:28:28;48945.19;;;-144.47;51.15
31585;BME280;18191;51.288;12.390;2022-08-01T09:33:19;48931.25;;;-144.47;52.60
31585;BME280;18191;51.288;12.390;2022-08-01T09:38:19;48957.13;;;-144.47;52.74
31585;BME280;18191;51.288;12.390;2022-08-01T09:43:12;48965.06;;;-144.47;51.32
31585;BME280;18191;51.288;12.390;2022-08-01T09:48:06;48965.06;;;-144.47;50.94
31585;BME280;18191;51.288;12.390;2022-08-01T09:52:56;48961.09;;;-144.47;52.98
31585;BME280;18191;51.288;12.390;2022-08-01T09:57:56;48973.03;;;-144.47;53.09
31585;BME280;18191;51.288;12.390;2022-08-01T10:02:48;48935.25;;;-144.47;53.49
31585;BME280;18191;51.288;12.390;2022-08-01T10:12:47;48913.34;;;-144.47;50.45
31585;BME280;18191;51.288;12.390;2022-08-01T10:17:38;48917.34;;;-144.47;49.11
31585;BME280;18191;51.288;12.390;2022-08-01T10:22:29;48945.19;;;-144.47;47.75
31585;BME280;18191;51.288;12.390;2022-08-01T10:27:20;48925.28;;;-144.47;44.31
31585;BME280;18191;51.288;12.390;2022-08-01T10:32:11;48929.28;;;-144.47;47.22
31585;BME280;18191;51.288;12.390;2022-08-01T10:37:01;48973.03;;;-144.47;45.99
31585;BME280;18191;51.288;12.390;2022-08-01T10:41:52;48961.09;;;-144.47;45.80
31585;BME280;18191;51.288;12.390;2022-08-01T10:46:44;48935.25;;;-144.47;44.21
31585;BME280;18191;51.288;12.390;2022-08-01T10:51:36;48929.28;;;-144.47;43.97
31585;BME280;18191;51.288;12.390;2022-08-01T10:56:38;48965.06;;;-144.47;43.44
31585;BME280;18191;51.288;12.390;2022-08-01T11:01:31;48893.47;;;-144.47;43.38
31585;BME280;18191;51.288;12.390;2022-08-01T11:06:26;48941.19;;;-144.47;43.85
31585;BME280;18191;51.288;12.390;2022-08-01T11:11:18;48953.13;;;-144.47;41.15
31585;BME280;18191;51.288;12.390;2022-08-01T11:16:27;48935.25;;;-144.47;40.02
31585;BME280;18191;51.288;12.390;2022-08-01T11:21:18;48955.13;;;-144.47;41.17
31585;BME280;18191;51.288;12.390;2022-08-01T11:26:09;48988.94;;;-144.47;41.79
31585;BME280;18191;51.288;12.390;2022-08-01T11:41:10;48949.16;;;-144.47;38.03
31585;BME280;18191;51.288;12.390;2022-08-01T11:46:00;48949.16;;;-144.47;40.89
31585;BME280;18191;51.288;12.390;2022-08-01T11:50:52;48955.13;;;-144.47;40.25
31585;BME280;18191;51.288;12.390;2022-08-01T11:55:50;48967.06;;;-144.47;41.67
31585;BME280;18191;51.288;12.390;2022-08-01T12:00:40;49000.88;;;-144.47;40.59
31585;BME280;18191;51.288;12.390;2022-08-01T12:05:31;48949.16;;;-144.47;39.44
31585;BME280;18191;51.288;12.390;2022-08-01T12:10:24;48953.13;;;-144.47;39.38
31585;BME280;18191;51.288;12.390;2022-08-01T12:15:15;48965.06;;;-144.47;40.55
31585;BME280;18191;51.288;12.390;2022-08-01T12:20:06;48953.13;;;-144.47;40.92
31585;BME280;18191;51.288;12.390;2022-08-01T12:25:04;48973.03;;;-144.47;39.63
31585;BME280;18191;51.288;12.390;2022-08-01T12:29:55;48957.13;;;-144.47;41.26
31585;BME280;18191;51.288;12.390;2022-08-01T12:34:45;48941.19;;;-144.47;41.54
31585;BME280;18191;51.288;12.390;2022-08-01T12:39:36;48945.19;;;-144.47;41.64
31585;BME280;18191;51.288;12.390;2022-08-01T12:44:27;48935.25;;;-144.47;40.79
31585;BME280;18191;51.288;12.390;2022-08-01T12:49:18;48943.19;;;-144.47;39.99
31585;BME280;18191;51.288;12.390;2022-08-01T12:54:08;48955.13;;;-144.47;40.10
31585;BME280;18191;51.288;12.390;2022-08-01T12:59:00;48909.38;;;-144.47;40.38
31585;BME280;18191;51.288;12.390;2022-08-01T13:03:57;48935.25;;;-144.47;38.61
31585;BME280;18191;51.288;12.390;2022-08-01T13:08:47;48929.28;;;-144.47;38.63
31585;BME280;18191;51.288;12.390;2022-08-01T13:13:38;48941.19;;;-144.47;39.50
31585;BME280;18191;51.288;12.390;2022-08-01T13:18:29;48941.19;;;-144.47;38.65
31585;BME280;18191;51.288;12.390;2022-08-01T13:23:20;48977.00;;;-144.47;38.25
31585;BME280;18191;51.288;12.390;2022-08-01T13:28:13;48941.19;;;-144.47;39.87
31585;BME280;18191;51.288;12.390;2022-08-01T13:33:03;48941.19;;;-144.47;39.74
31585;BME280;18191;51.288;12.390;2022-08-01T13:37:54;48925.28;;;-144.47;40.13
31585;BME280;18191;51.288;12.390;2022-08-01T13:42:44;48941.19;;;-144.47;39.75
31585;BME280;18191;51.288;12.390;2022-08-01T13:47:34;48953.13;;;-144.47;39.66
31585;BME280;18191;51.288;12.390;2022-08-01T13:52:24;48963.09;;;-144.47;39.82
31585;BME280;18191;51.288;12.390;2022-08-01T13:57:15;48913.34;;;-144.47;40.96
31585;BME280;18191;51.288;12.390;2022-08-01T14:02:06;48957.13;;;-144.47;41.42
31585;BME280;18191;51.288;12.390;2022-08-01T14:06:56;48913.34;;;-144.47;41.40
31585;BME280;18191;51.288;12.390;2022-08-01T14:11:46;48953.13;;;-144.47;41.58
31585;BME280;18191;51.288;12.390;2022-08-01T14:16:37;48933.25;;;-144.47;41.98
31585;BME280;18191;51.288;12.390;2022-08-01T14:21:27;48953.13;;;-144.47;39.95
31585;BME280;18191;51.288;12.390;2022-08-01T14:26:17;48941.19;;;-144.47;37.55
31585;BME280;18191;51.288;12.390;2022-08-01T14:31:07;48949.16;;;-144.47;38.55
31585;BME280;18191;51.288;12.390;2022-08-01T14:35:58;48953.13;;;-144.47;39.48
31585;BME280;18191;51.288;12.390;2022-08-01T14:40:48;48945.19;;;-144.47;40.28
31585;BME280;18191;51.288;12.390;2022-08-01T14:45:41;48917.34;;;-144.47;40.36
31585;BME280;18191;51.288;12.390;2022-08-01T14:50:31;48929.28;;;-144.47;39.77
31585;BME280;18191;51.288;12.390;2022-08-01T14:55:21;48923.31;;;-144.47;38.73
31585;BME280;18191;51.288;12.390;2022-08-01T15:00:15;48949.16;;;-144.47;38.28
31585;BME280;18191;51.288;12.390;2022-08-01T15:05:05;48961.09;;;-144.47;38.17
31585;BME280;18191;51.288;12.390;2022-08-01T15:09:56;48925.28;;;-144.47;38.11
31585;BME280;18191;51.288;12.390;2022-08-01T15:14:46;48919.31;;;-144.47;37.83
31585;BME280;18191;51.288;12.390;2022-08-01T15:19:40;48933.25;;;-144.47;37.04
31585;BME280;18191;51.288;12.390;2022-08-01T15:24:30;48899.44;;;-144.47;38.36
31585;BME280;18191;51.288;12.390;2022-08-01T15:29:20;48933.25;;;-144.47;38.50
31585;BME280;18191;51.288;12.390;2022-08-01T15:34:11;48929.28;;;-144.47;38.44
31585;BME280;18191;51.288;12.390;2022-08-01T15:39:01;48941.19;;;-144.47;38.22
31585;BME280;18191;51.288;12.390;2022-08-01T15:43:51;48965.06;;;-144.47;38.40
31585;BME280;18191;51.288;12.390;2022-08-01T15:48:41;48935.25;;;-144.47;38.51
31585;BME280;18191;51.288;12.390;2022-08-01T15:53:31;48937.22;;;-144.47;38.12
31585;BME280;18191;51.288;12.390;2022-08-01T15:58:22;48945.19;;;-144.47;38.39
31585;BME280;18191;51.288;12.390;2022-08-01T16:03:12;48937.22;;;-144.47;39.27
31585;BME280;18191;51.288;12.390;2022-08-01T16:08:02;48931.25;;;-144.47;39.20
31585;BME280;18191;51.288;12.390;2022-08-01T16:12:53;48885.50;;;-144.47;39.52
31585;BME280;18191;51.288;12.390;2022-08-01T16:17:43;48941.19;;;-144.47;38.24
31585;BME280;18191;51.288;12.390;2022-08-01T16:22:33;48941.19;;;-144.47;38.00
31585;BME280;18191;51.288;12.390;2022-08-01T16:27:25;48933.25;;;-144.47;39.02
31585;BME280;18191;51.288;12.390;2022-08-01T16:32:16;48913.34;;;-144.47;38.61
31585;BME280;18191;51.288;12.390;2022-08-01T16:37:06;48909.38;;;-144.47;38.72
31585;BME280;18191;51.288;12.390;2022-08-01T16:41:56;48929.28;;;-144.47;38.70
31585;BME280;18191;51.288;12.390;2022-08-01T16:46:47;48921.31;;;-144.47;39.41
31585;BME280;18191;51.288;12.390;2022-08-01T16:51:37;48941.19;;;-144.47;39.96
31585;BME280;18191;51.288;12.390;2022-08-01T16:56:27;48917.34;;;-144.47;39.32
31585;BME280;18191;51.288;12.390;2022-08-01T17:01:17;48931.25;;;-144.47;38.90
31585;BME280;18191;51.288;12.390;2022-08-01T17:06:08;48945.19;;;-144.47;39.09
31585;BME280;18191;51.288;12.390;2022-08-01T17:10:58;48941.19;;;-144.47;38.52
31585;BME280;18191;51.288;12.390;2022-08-01T17:15:49;48935.25;;;-144.47;39.42
31585;BME280;18191;51.288;12.390;2022-08-01T17:20:39;48935.25;;;-144.47;39.31
31585;BME280;18191;51.288;12.390;2022-08-01T17:25:30;48893.47;;;-144.47;39.22
31585;BME280;18191;51.288;12.390;2022-08-01T17:30:23;48897.44;;;-144.47;39.91
31585;BME280;18191;51.288;12.390;2022-08-01T17:35:13;48921.31;;;-144.47;39.65
31585;BME280;18191;51.288;12.390;2022-08-01T17:40:04;48901.41;;;-144.47;39.41
31585;BME280;18191;51.288;12.390;2022-08-01T17:44:55;48937.22;;;-144.47;39.56
31585;BME280;18191;51.288;12.390;2022-08-01T17:49:46;48917.34;;;-144.47;40.21
31585;BME280;18191;51.288;12.390;2022-08-01T17:54:36;48923.31;;;-144.47;41.35
31585;BME280;18191;51.288;12.390;2022-08-01T17:59:26;48933.25;;;-144.47;43.03
31585;BME280;18191;51.288;12.390;2022-08-01T18:04:16;48953.13;;;-144.47;42.76
31585;BME280;18191;51.288;12.390;2022-08-01T18:09:07;48927.28;;;-144.47;42.43
31585;BME280;18191;51.288;12.390;2022-08-01T18:13:58;48925.28;;;-144.47;43.14
31585;BME280;18191;51.288;12.390;2022-08-01T18:18:48;48919.31;;;-144.47;43.58
31585;BME280;18191;51.288;12.390;2022-08-01T18:23:39;48941.19;;;-144.47;44.18
31585;BME280;18191;51.288;12.390;2022-08-01T18:28:29;48921.31;;;-144.47;45.03
31585;BME280;18191;51.288;12.390;2022-08-01T18:33:19;48973.03;;;-144.47;44.34
31585;BME280;18191;51.288;12.390;2022-08-01T18:38:09;48937.22;;;-144.47;45.42
31585;BME280;18191;51.288;12.390;2022-08-01T18:43:00;48949.16;;;-144.47;45.48
31585;BME280;18191;51.288;12.390;2022-08-01T18:47:50;48963.09;;;-144.47;45.77
31585;BME280;18191;51.288;12.390;2022-08-01T18:52:40;48961.09;;;-144.47;45.77
31585;BME280;18191;51.288;12.390;2022-08-01T18:57:33;48925.28;;;-144.47;46.17
31585;BME280;18191;51.288;12.390;2022-08-01T19:02:24;48945.19;;;-144.47;46.01
31585;BME280;18191;51.288;12.390;2022-08-01T19:07:14;48992.94;;;-144.47;47.36
31585;BME280;18191;51.288;12.390;2022-08-01T19:12:04;48943.19;;;-144.47;47.85
31585;BME280;18191;51.288;12.390;2022-08-01T19:16:54;48969.06;;;-144.47;48.56
31585;BME280;18191;51.288;12.390;2022-08-01T19:21:45;48963.09;;;-144.47;49.07
31585;BME280;18191;51.288;12.390;2022-08-01T19:26:35;48941.19;;;-144.47;50.68
31585;BME280;18191;51.288;12.390;2022-08-01T19:31:26;48977.00;;;-144.47;51.63
31585;BME280;18191;51.288;12.390;2022-08-01T19:36:17;48951.16;;;-144.47;51.47
31585;BME280;18191;51.288;12.390;2022-08-01T19:41:08;48921.31;;;-144.47;53.58
31585;BME280;18191;51.288;12.390;2022-08-01T19:45:58;48945.19;;;-144.47;55.02
31585;BME280;18191;51.288;12.390;2022-08-01T19:50:48;48959.09;;;-144.47;56.39
31585;BME280;18191;51.288;12.390;2022-08-01T19:55:40;48957.13;;;-144.47;57.43
31585;BME280;18191;51.288;12.390;2022-08-01T20:00:32;48981.00;;;-144.47;57.57
31585;BME280;18191;51.288;12.390;2022-08-01T20:05:23;48949.16;;;-144.47;57.89
31585;BME280;18191;51.288;12.390;2022-08-01T20:10:13;48955.13;;;-144.47;58.72
31585;BME280;18191;51.288;12.390;2022-08-01T20:15:04;48941.19;;;-144.47;59.71
31585;BME280;18191;51.288;12.390;2022-08-01T20:19:54;48949.16;;;-144.47;59.79
31585;BME280;18191;51.288;12.390;2022-08-01T20:24:45;49002.88;;;-144.47;60.27
31585;BME280;18191;51.288;12.390;2022-08-01T20:29:43;48973.03;;;-144.47;59.77
31585;BME280;18191;51.288;12.390;2022-08-01T20:34:34;48990.94;;;-144.47;59.71
31585;BME280;18191;51.288;12.390;2022-08-01T20:39:26;48941.19;;;-144.47;57.63
31585;BME280;18191;51.288;12.390;2022-08-01T20:44:17;48969.06;;;-144.47;59.47
31585;BME280;18191;51.288;12.390;2022-08-01T20:49:07;48945.19;;;-144.47;60.94
31585;BME280;18191;51.288;12.390;2022-08-01T20:54:00;48969.06;;;-144.47;61.79
31585;BME280;18191;51.288;12.390;2022-08-01T20:58:59;48990.94;;;-144.47;62.56
31585;BME280;18191;51.288;12.390;2022-08-01T21:04:13;48965.06;;;-144.47;64.07
31585;BME280;18191;51.288;12.390;2022-08-01T21:09:05;48969.06;;;-144.47;63.88
31585;BME280;18191;51.288;12.390;2022-08-01T21:13:55;48973.03;;;-144.47;64.39
31585;BME280;18191;51.288;12.390;2022-08-01T21:18:53;48979.00;;;-144.47;64.92
31585;BME280;18191;51.288;12.390;2022-08-01T21:23:58;48955.13;;;-144.47;65.85
31585;BME280;18191;51.288;12.390;2022-08-01T21:28:49;48996.91;;;-144.47;66.60
31585;BME280;18191;51.288;12.390;2022-08-01T21:33:40;49006.84;;;-144.47;66.74
31585;BME280;18191;51.288;12.390;2022-08-01T21:38:31;48981.00;;;-144.47;67.00
31585;BME280;18191;51.288;12.390;2022-08-01T21:43:22;48949.16;;;-144.47;68.74
31585;BME280;18191;51.288;12.390;2022-08-01T21:48:13;48971.03;;;-144.47;68.36
31585;BME280;18191;51.288;12.390;2022-08-01T21:53:08;48949.16;;;-144.47;68.72
31585;BME280;18191;51.288;12.390;2022-08-01T21:58:09;49000.88;;;-144.47;69.21
31585;BME280;18191;51.288;12.390;2022-08-01T22:08:11;48965.06;;;-144.47;70.46
31585;BME280;18191;51.288;12.390;2022-08-01T22:13:02;48977.00;;;-144.47;70.26
31585;BME280;18191;51.288;12.390;2022-08-01T22:17:52;48965.06;;;-144.47;70.95
31585;BME280;18191;51.288;12.390;2022-08-01T22:22:43;48977.00;;;-144.47;71.79
31585;BME280;18191;51.288;12.390;2022-08-01T22:27:33;48965.06;;;-144.47;71.47
31585;BME280;18191;51.288;12.390;2022-08-01T22:32:24;49008.84;;;-144.47;71.41
31585;BME280;18191;51.288;12.390;2022-08-01T22:37:14;48988.94;;;-144.47;71.99
31585;BME280;18191;51.288;12.390;2022-08-01T22:42:04;48992.94;;;-144.47;71.77
31585;BME280;18191;51.288;12.390;2022-08-01T22:46:59;49000.88;;;-144.47;72.19
31585;BME280;18191;51.288;12.390;2022-08-01T22:51:54;48975.03;;;-144.47;72.21
31585;BME280;18191;51.288;12.390;2022-08-01T22:56:49;48982.97;;;-144.47;71.24
31585;BME280;18191;51.288;12.390;2022-08-01T23:01:40;48955.13;;;-144.47;71.06
31585;BME280;18191;51.288;12.390;2022-08-01T23:06:37;48988.94;;;-144.47;70.13
31585;BME280;18191;51.288;12.390;2022-08-01T23:11:27;48961.09;;;-144.47;69.48
31585;BME280;18191;51.288;12.390;2022-08-01T23:16:18;48941.19;;;-144.47;67.49
31585;BME280;18191;51.288;12.390;2022-08-01T23:21:09;49012.81;;;-144.47;66.79
31585;BME280;18191;51.288;12.390;2022-08-01T23:25:59;48953.13;;;-144.47;65.87
31585;BME280;18191;51.288;12.390;2022-08-01T23:30:50;48981.00;;;-144.47;65.51
31585;BME280;18191;51.288;12.390;2022-08-01T23:35:41;48969.06;;;-144.47;66.38
31585;BME280;18191;51.288;12.390;2022-08-01T23:40:31;48971.03;;;-144.47;66.97
31585;BME280;18191;51.288;12.390;2022-08-01T23:45:22;48990.94;;;-144.47;67.84
31585;BME280;18191;51.288;12.390;2022-08-01T23:50:12;49008.84;;;-144.47;68.12
31585;BME280;18191;51.288;12.390;2022-08-01T23:55:02;48963.09;;;-144.47;69.02
31585;BME280;18191;51.288;12.390;2022-08-01T23:59:53;48965.06;;;-144.47;69.38
